createdAt,value
2022-10-28T00:02:23.828Z,68.18
2022-10-28T00:05:26.776Z,68.11
2022-10-28T00:08:29.552Z,68.12
2022-10-28T00:11:34.603Z,68.20
2022-10-28T00:14:36.951Z,68.21
2022-10-28T00:17:39.624Z,68.23
2022-10-28T00:20:41.980Z,68.24
2022-10-28T00:23:45.519Z,68.31
2022-10-28T00:26:47.570Z,68.36
2022-10-28T00:29:50.751Z,68.29
2022-10-28T00:32:53.353Z,68.35
2022-10-28T00:35:56.318Z,68.29
2022-10-28T00:38:59.606Z,68.32
2022-10-28T00:42:06.633Z,68.27
2022-10-28T00:45:09.862Z,68.28
2022-10-28T00:48:13.073Z,68.30
2022-10-28T00:51:16.336Z,68.29
2022-10-28T00:54:19.718Z,68.29
2022-10-28T00:57:28.180Z,68.27
2022-10-28T01:00:30.898Z,68.34
2022-10-28T01:03:33.373Z,68.33
2022-10-28T01:06:36.010Z,68.33
2022-10-28T01:09:40.293Z,68.34
2022-10-28T01:12:42.596Z,68.38
2022-10-28T01:15:48.901Z,68.42
2022-10-28T01:19:03.274Z,68.44
2022-10-28T01:22:23.731Z,68.46
2022-10-28T01:26:04.167Z,68.53
2022-10-28T01:29:15.285Z,68.52
2022-10-28T01:32:50.165Z,68.55
2022-10-28T01:35:59.417Z,68.55
2022-10-28T01:39:14.324Z,68.53
2022-10-28T01:42:28.744Z,68.55
2022-10-28T01:45:36.101Z,68.53
2022-10-28T01:48:46.888Z,68.58
2022-10-28T01:51:55.569Z,68.59
2022-10-28T01:55:09.011Z,68.56
2022-10-28T01:58:16.158Z,68.58
2022-10-28T02:01:19.608Z,68.57
2022-10-28T02:04:22.340Z,68.59
2022-10-28T02:07:24.682Z,68.58
2022-10-28T02:10:35.358Z,68.55
2022-10-28T02:14:09.842Z,68.55
2022-10-28T02:17:49.621Z,68.57
2022-10-28T02:21:02.833Z,68.59
2022-10-28T02:24:19.991Z,68.56
2022-10-28T02:27:33.306Z,68.57
2022-10-28T02:30:54.241Z,68.58
2022-10-28T02:34:01.588Z,68.60
2022-10-28T02:37:11.592Z,68.63
2022-10-28T02:40:20.112Z,68.67
2022-10-28T02:43:25.251Z,68.73
2022-10-28T02:46:31.571Z,68.72
2022-10-28T02:49:37.835Z,68.77
2022-10-28T02:52:42.829Z,68.82
2022-10-28T02:55:49.603Z,68.86
2022-10-28T02:58:52.024Z,68.86
2022-10-28T03:01:54.953Z,68.89
2022-10-28T03:04:57.301Z,68.91
2022-10-28T03:07:59.812Z,68.91
2022-10-28T03:11:03.567Z,68.89
2022-10-28T03:14:07.893Z,68.89
2022-10-28T03:17:11.655Z,68.86
2022-10-28T03:20:14.363Z,68.84
2022-10-28T03:23:16.343Z,68.85
2022-10-28T03:26:18.726Z,68.84
2022-10-28T03:29:21.299Z,68.85
2022-10-28T03:32:23.885Z,68.87
2022-10-28T03:35:26.048Z,68.82
2022-10-28T03:38:28.441Z,68.79
2022-10-28T03:41:30.668Z,68.79
2022-10-28T03:44:32.928Z,68.74
2022-10-28T03:47:36.039Z,68.75
2022-10-28T03:50:38.670Z,68.73
2022-10-28T03:53:40.672Z,68.73
2022-10-28T03:56:43.362Z,68.70
2022-10-28T03:59:45.529Z,68.74
2022-10-28T04:02:52.633Z,68.73
2022-10-28T04:05:55.265Z,68.76
2022-10-28T04:08:57.779Z,68.80
2022-10-28T04:11:59.895Z,68.79
2022-10-28T04:15:02.607Z,68.79
2022-10-28T04:18:05.304Z,68.76
2022-10-28T04:21:07.808Z,68.77
2022-10-28T04:24:09.904Z,68.74
2022-10-28T04:27:12.905Z,68.75
2022-10-28T04:30:15.762Z,68.76
2022-10-28T04:33:18.926Z,68.72
2022-10-28T04:36:21.487Z,68.74
2022-10-28T04:39:24.368Z,68.74
2022-10-28T04:42:27.257Z,68.78
2022-10-28T04:45:29.922Z,68.80
2022-10-28T04:48:35.846Z,68.77
2022-10-28T04:51:38.724Z,68.75
2022-10-28T04:54:40.986Z,68.77
2022-10-28T04:57:43.433Z,68.76
2022-10-28T05:00:45.705Z,68.73
2022-10-28T05:03:48.370Z,68.73
2022-10-28T05:06:50.645Z,68.70
2022-10-28T05:09:53.236Z,68.71
2022-10-28T05:12:55.487Z,68.69
2022-10-28T05:15:57.980Z,68.74
2022-10-28T05:19:00.289Z,68.76
2022-10-28T05:22:02.890Z,68.79
2022-10-28T05:25:05.692Z,68.75
2022-10-28T05:28:08.484Z,68.78
2022-10-28T05:31:10.990Z,68.75
2022-10-28T05:34:13.358Z,68.80
2022-10-28T05:37:16.210Z,68.80
2022-10-28T05:40:18.684Z,68.82
2022-10-28T05:43:21.038Z,68.84
2022-10-28T05:46:23.644Z,68.91
2022-10-28T05:49:25.859Z,68.91
2022-10-28T05:52:28.109Z,68.93
2022-10-28T05:55:30.259Z,68.97
2022-10-28T05:58:32.618Z,68.97
2022-10-28T06:01:34.786Z,68.98
2022-10-28T06:04:37.401Z,69.02
2022-10-28T06:07:41.275Z,69.00
2022-10-28T06:10:50.286Z,69.08
2022-10-28T06:13:52.859Z,69.11
2022-10-28T06:16:55.865Z,69.10
2022-10-28T06:19:58.062Z,69.16
2022-10-28T06:23:00.994Z,69.16
2022-10-28T06:26:04.574Z,69.24
2022-10-28T06:29:09.759Z,69.31
2022-10-28T06:32:11.956Z,69.34
2022-10-28T06:35:14.534Z,69.53
2022-10-28T06:38:16.687Z,69.53
2022-10-28T06:41:20.171Z,69.58
2022-10-28T06:44:22.494Z,69.66
2022-10-28T06:47:26.842Z,69.90
2022-10-28T06:50:29.921Z,70.00
2022-10-28T06:53:32.502Z,69.86
2022-10-28T06:56:34.963Z,69.65
2022-10-28T06:59:37.803Z,69.58
2022-10-28T07:02:45.191Z,69.32
2022-10-28T07:05:50.231Z,69.04
2022-10-28T07:08:52.942Z,68.89
2022-10-28T07:11:56.507Z,68.71
2022-10-28T07:15:01.575Z,68.75
2022-10-28T07:18:04.156Z,68.68
2022-10-28T07:21:06.379Z,68.43
2022-10-28T07:24:09.232Z,68.41
2022-10-28T07:27:11.338Z,68.49
2022-10-28T07:30:13.913Z,68.46
2022-10-28T07:33:16.403Z,68.44
2022-10-28T07:36:18.812Z,68.39
2022-10-28T07:39:21.166Z,68.39
2022-10-28T07:42:24.271Z,68.42
2022-10-28T07:45:26.660Z,68.45
2022-10-28T07:48:29.167Z,68.51
2022-10-28T07:51:31.455Z,68.64
2022-10-28T07:54:34.359Z,69.16
2022-10-28T07:57:37.259Z,69.02
2022-10-28T08:00:39.990Z,68.89
2022-10-28T08:03:42.316Z,68.79
2022-10-28T08:06:44.662Z,68.61
2022-10-28T08:09:46.933Z,68.56
2022-10-28T08:12:49.579Z,68.58
2022-10-28T08:15:53.559Z,68.44
2022-10-28T08:18:57.212Z,68.32
2022-10-28T08:21:59.690Z,68.18
2022-10-28T08:25:01.979Z,68.05
2022-10-28T08:28:04.650Z,67.83
2022-10-28T08:31:10.506Z,67.73
2022-10-28T08:34:12.662Z,67.64
2022-10-28T08:37:16.412Z,67.56
2022-10-28T08:40:24.676Z,67.36
2022-10-28T08:43:57.268Z,67.42
2022-10-28T08:47:21.950Z,67.43
2022-10-28T08:50:27.929Z,67.62
2022-10-28T08:53:41.488Z,67.46
2022-10-28T08:56:47.586Z,67.20
2022-10-28T08:59:53.072Z,67.34
2022-10-28T09:03:06.738Z,67.21
2022-10-28T09:06:10.587Z,67.02
2022-10-28T09:09:19.756Z,66.86
2022-10-28T09:12:43.957Z,66.75
2022-10-28T09:16:21.886Z,66.72
2022-10-28T09:19:32.863Z,66.87
2022-10-28T09:22:56.092Z,66.86
2022-10-28T09:26:11.435Z,66.87
2022-10-28T09:29:43.317Z,66.84
2022-10-28T09:32:52.954Z,66.80
2022-10-28T09:35:57.251Z,66.73
2022-10-28T09:39:01.524Z,66.74
2022-10-28T09:42:10.112Z,66.72
2022-10-28T09:45:28.585Z,66.72
2022-10-28T09:48:42.145Z,66.68
2022-10-28T09:51:52.845Z,66.67
2022-10-28T09:54:57.044Z,66.73
2022-10-28T09:57:59.987Z,66.67
2022-10-28T10:01:05.164Z,66.72
2022-10-28T10:04:22.682Z,66.72
2022-10-28T10:07:57.042Z,66.72
2022-10-28T10:11:07.193Z,66.73
2022-10-28T10:14:15.768Z,66.71
2022-10-28T10:17:43.475Z,66.73
2022-10-28T10:21:01.556Z,66.68
2022-10-28T10:24:29.186Z,66.69
2022-10-28T10:27:32.469Z,66.67
2022-10-28T10:30:36.847Z,66.68
2022-10-28T10:33:41.143Z,66.67
2022-10-28T10:36:51.199Z,66.65
2022-10-28T10:40:11.175Z,66.78
2022-10-28T10:43:22.958Z,66.73
2022-10-28T10:46:25.180Z,66.64
2022-10-28T10:49:28.754Z,66.70
2022-10-28T10:52:31.556Z,66.67
2022-10-28T10:55:33.864Z,66.65
2022-10-28T10:58:40.555Z,66.69
2022-10-28T11:01:43.172Z,66.72
2022-10-28T11:04:52.128Z,66.76
2022-10-28T11:07:54.621Z,66.77
2022-10-28T11:11:07.615Z,66.79
2022-10-28T11:14:10.535Z,66.84
2022-10-28T11:17:25.509Z,66.87
2022-10-28T11:20:32.469Z,66.92
2022-10-28T11:24:07.209Z,66.92
2022-10-28T11:27:28.854Z,66.97
2022-10-28T11:30:45.244Z,67.02
2022-10-28T11:34:13.373Z,67.24
2022-10-28T11:37:38.919Z,67.14
2022-10-28T11:40:50.421Z,67.10
2022-10-28T11:43:57.681Z,67.16
2022-10-28T11:47:21.794Z,67.07
2022-10-28T11:50:43.223Z,67.09
2022-10-28T11:53:57.281Z,67.09
2022-10-28T11:57:12.823Z,67.18
2022-10-28T12:00:36.088Z,67.22
2022-10-28T12:04:32.963Z,67.12
2022-10-28T12:07:42.429Z,66.98
2022-10-28T12:11:10.496Z,66.79
2022-10-28T12:14:15.755Z,66.81
2022-10-28T12:17:52.716Z,66.68
2022-10-28T12:21:19.077Z,66.56
2022-10-28T12:24:25.001Z,66.57
2022-10-28T12:27:36.597Z,66.37
2022-10-28T12:30:43.462Z,66.31
2022-10-28T12:33:57.617Z,66.21
2022-10-28T12:37:14.467Z,66.07
2022-10-28T12:40:22.005Z,65.98
2022-10-28T12:43:40.716Z,65.92
2022-10-28T12:50:09.729Z,65.76
2022-10-28T12:53:36.221Z,65.61
2022-10-28T12:56:57.554Z,65.45
2022-10-28T13:00:20.626Z,65.50
2022-10-28T13:03:28.523Z,65.26
2022-10-28T13:06:49.682Z,65.18
2022-10-28T13:10:11.133Z,65.07
2022-10-28T13:13:45.874Z,64.97
2022-10-28T13:17:05.477Z,64.92
2022-10-28T13:20:18.274Z,64.87
2022-10-28T13:23:25.509Z,64.82
2022-10-28T13:26:37.078Z,64.73
2022-10-28T13:29:44.752Z,64.75
2022-10-28T13:33:01.169Z,64.73
2022-10-28T13:36:27.000Z,64.77
2022-10-28T13:39:31.886Z,64.66
2022-10-28T13:42:47.714Z,64.61
2022-10-28T13:45:55.679Z,64.53
2022-10-28T13:49:26.733Z,64.50
2022-10-28T13:52:29.117Z,64.48
2022-10-28T13:55:39.096Z,64.42
2022-10-28T13:59:06.661Z,64.45
2022-10-28T14:02:37.999Z,64.41
2022-10-28T14:05:40.370Z,64.51
2022-10-28T14:08:44.943Z,64.42
2022-10-28T14:11:47.108Z,64.38
2022-10-28T14:15:06.495Z,64.46
2022-10-28T14:18:43.108Z,64.47
2022-10-28T14:22:03.328Z,64.52
2022-10-28T14:25:41.739Z,64.73
2022-10-28T14:28:54.400Z,64.98
2022-10-28T14:31:56.720Z,64.92
2022-10-28T14:35:03.568Z,65.37
2022-10-28T14:38:14.043Z,65.09
2022-10-28T14:41:16.702Z,65.13
2022-10-28T14:44:37.671Z,65.19
2022-10-28T14:48:03.381Z,65.47
2022-10-28T14:51:14.953Z,65.64
2022-10-28T14:54:29.993Z,65.65
2022-10-28T14:57:34.915Z,65.80
2022-10-28T15:00:42.425Z,65.82
2022-10-28T15:03:47.551Z,65.51
2022-10-28T15:06:52.073Z,65.12
2022-10-28T15:09:56.168Z,65.06
2022-10-28T15:13:00.233Z,65.10
2022-10-28T15:16:05.211Z,65.07
2022-10-28T15:19:34.081Z,65.10
2022-10-28T15:22:36.359Z,65.09
2022-10-28T15:25:38.875Z,65.06
2022-10-28T15:28:52.739Z,65.01
2022-10-28T15:32:07.336Z,64.95
2022-10-28T15:35:38.271Z,64.79
2022-10-28T15:38:43.801Z,64.78
2022-10-28T15:41:49.738Z,64.87
2022-10-28T15:45:03.276Z,65.06
2022-10-28T15:48:19.237Z,65.11
2022-10-28T15:51:21.811Z,65.20
2022-10-28T15:54:24.054Z,65.22
2022-10-28T15:57:31.955Z,65.30
2022-10-28T16:00:34.506Z,65.46
2022-10-28T16:03:40.227Z,65.56
2022-10-28T16:06:42.303Z,65.75
2022-10-28T16:09:48.416Z,65.76
2022-10-28T16:12:51.192Z,65.83
2022-10-28T16:15:58.342Z,65.87
2022-10-28T16:19:16.330Z,65.99
2022-10-28T16:22:36.027Z,66.09
2022-10-28T16:25:39.310Z,66.02
2022-10-28T16:28:45.786Z,66.11
2022-10-28T16:31:52.546Z,66.15
2022-10-28T16:34:58.127Z,66.26
2022-10-28T16:38:00.377Z,66.27
2022-10-28T16:41:04.698Z,66.32
2022-10-28T16:44:17.034Z,66.41
2022-10-28T16:47:21.105Z,66.44
2022-10-28T16:50:23.656Z,66.46
2022-10-28T16:53:26.576Z,66.48
2022-10-28T16:56:28.725Z,66.50
2022-10-28T16:59:31.506Z,66.58
2022-10-28T17:02:36.143Z,66.63
2022-10-28T17:05:38.999Z,66.61
2022-10-28T17:12:06.052Z,66.72
2022-10-28T17:15:08.863Z,66.74
2022-10-28T17:18:12.941Z,66.76
2022-10-28T17:21:14.970Z,66.93
2022-10-28T17:24:17.490Z,66.99
2022-10-28T17:27:25.345Z,66.98
2022-10-28T17:30:28.699Z,66.94
2022-10-28T17:33:31.041Z,67.05
2022-10-28T17:36:34.208Z,67.01
2022-10-28T17:39:36.570Z,67.03
2022-10-28T17:42:38.999Z,67.09
2022-10-28T17:45:41.337Z,67.16
2022-10-28T17:48:44.465Z,67.12
2022-10-28T17:51:46.530Z,67.18
2022-10-28T17:54:48.895Z,67.25
2022-10-28T17:57:51.174Z,67.32
2022-10-28T18:01:06.329Z,67.21
2022-10-28T18:04:09.008Z,67.29
2022-10-28T18:07:11.508Z,67.29
2022-10-28T18:10:14.266Z,67.40
2022-10-28T18:18:01.737Z,67.53
2022-10-28T18:21:04.574Z,67.47
2022-10-28T18:24:09.810Z,67.52
2022-10-28T18:31:41.180Z,67.62
2022-10-28T18:35:08.662Z,67.81
2022-10-28T18:38:10.765Z,67.82
2022-10-28T18:45:25.591Z,67.94
2022-10-28T18:48:29.156Z,68.01
2022-10-28T18:51:41.911Z,68.05
2022-10-28T18:55:09.639Z,68.02
2022-10-28T18:59:01.100Z,68.03
2022-10-28T19:02:35.425Z,68.16
2022-10-28T19:05:54.438Z,68.13
2022-10-28T19:08:58.298Z,68.17
2022-10-28T19:12:00.238Z,68.26
2022-10-28T19:15:03.855Z,68.61
2022-10-28T19:18:05.849Z,68.72
2022-10-28T19:21:12.860Z,68.69
2022-10-28T19:24:15.171Z,68.75
2022-10-28T19:27:17.829Z,68.58
2022-10-28T19:30:22.056Z,68.55
2022-10-28T19:33:24.995Z,68.39
2022-10-28T19:36:29.506Z,68.30
2022-10-28T19:39:31.972Z,68.30
2022-10-28T19:42:34.335Z,68.20
2022-10-28T19:45:38.257Z,68.11
2022-10-28T19:48:43.605Z,68.09
2022-10-28T19:51:46.228Z,67.99
2022-10-28T19:54:48.209Z,67.89
2022-10-28T19:57:52.897Z,67.92
2022-10-28T20:01:00.120Z,67.82
2022-10-28T20:04:04.279Z,67.81
2022-10-28T20:07:06.290Z,67.75
2022-10-28T20:10:09.476Z,67.84
2022-10-28T20:13:11.834Z,67.70
2022-10-28T20:16:14.798Z,67.58
2022-10-28T20:19:17.088Z,67.48
2022-10-28T20:22:19.735Z,67.41
2022-10-28T20:25:22.308Z,67.29
2022-10-28T20:28:30.050Z,67.23
2022-10-28T20:31:33.749Z,67.19
2022-10-28T20:34:36.653Z,67.20
2022-10-28T20:37:40.400Z,67.28
2022-10-28T20:40:46.561Z,67.25
2022-10-28T20:43:52.647Z,67.23
2022-10-28T20:46:55.833Z,67.37
2022-10-28T20:49:59.521Z,67.38
2022-10-28T20:53:03.079Z,67.23
2022-10-28T20:56:05.757Z,67.18
2022-10-28T20:59:08.463Z,67.29
2022-10-28T21:02:11.291Z,67.55
2022-10-28T21:05:13.959Z,67.44
2022-10-28T21:08:17.597Z,67.53
2022-10-28T21:11:20.787Z,67.53
2022-10-28T21:14:22.922Z,67.56
2022-10-28T21:17:25.629Z,67.52
2022-10-28T21:20:28.422Z,67.44
2022-10-28T21:23:56.691Z,67.34
2022-10-28T21:27:00.697Z,67.45
2022-10-28T21:30:04.086Z,67.37
2022-10-28T21:33:06.560Z,67.32
2022-10-28T21:36:16.961Z,67.33
2022-10-28T21:39:19.464Z,67.27
2022-10-28T21:42:21.771Z,67.37
2022-10-28T21:45:24.821Z,67.19
2022-10-28T21:48:30.291Z,67.18
2022-10-28T21:51:32.484Z,67.15
2022-10-28T21:54:35.432Z,67.14
2022-10-28T21:57:37.738Z,67.16
2022-10-28T22:00:40.490Z,66.94
2022-10-28T22:03:42.701Z,67.03
2022-10-28T22:06:53.590Z,66.96
2022-10-28T22:09:55.658Z,66.88
2022-10-28T22:12:58.088Z,66.90
2022-10-28T22:16:06.895Z,66.92
2022-10-28T22:19:12.966Z,66.78
2022-10-28T22:22:16.314Z,66.72
2022-10-28T22:25:18.808Z,66.68
2022-10-28T22:28:20.898Z,66.66
2022-10-28T22:31:25.837Z,66.69
2022-10-28T22:34:27.944Z,66.79
2022-10-28T22:37:30.289Z,66.83
2022-10-28T22:40:32.445Z,66.86
2022-10-28T22:43:35.318Z,66.63
2022-10-28T22:46:37.558Z,66.62
2022-10-28T22:49:41.034Z,66.55
2022-10-28T22:52:43.076Z,66.52
2022-10-28T22:55:46.628Z,66.36
2022-10-28T22:58:53.035Z,66.28
2022-10-28T23:01:55.531Z,66.42
2022-10-28T23:04:57.560Z,66.39
2022-10-28T23:08:00.417Z,66.31
2022-10-28T23:11:03.029Z,66.14
2022-10-28T23:14:05.347Z,66.21
2022-10-28T23:17:08.462Z,66.25
2022-10-28T23:20:11.248Z,66.22
2022-10-28T23:23:13.756Z,66.07
2022-10-28T23:26:16.260Z,66.16
2022-10-28T23:29:18.370Z,66.36
2022-10-28T23:32:21.348Z,66.57
2022-10-28T23:35:23.587Z,66.79
2022-10-28T23:38:27.308Z,67.03
2022-10-28T23:41:29.449Z,67.16
2022-10-28T23:44:32.073Z,67.23
2022-10-28T23:47:34.678Z,67.35
2022-10-28T23:50:37.503Z,67.36
2022-10-28T23:53:39.619Z,67.48
2022-10-28T23:56:42.532Z,67.53
2022-10-28T23:59:44.483Z,67.59
